createdAt,value
2023-03-08T00:01:56.281Z,5.54
2023-03-08T00:04:22.961Z,5.56
2023-03-08T00:06:49.505Z,5.56
2023-03-08T00:09:15.972Z,5.55
2023-03-08T00:11:42.732Z,5.54
2023-03-08T00:14:09.187Z,5.54
2023-03-08T00:16:35.923Z,5.49
2023-03-08T00:19:02.537Z,5.46
2023-03-08T00:21:29.151Z,5.47
2023-03-08T00:23:55.805Z,5.46
2023-03-08T00:26:22.781Z,5.48
2023-03-08T00:28:49.368Z,5.45
2023-03-08T00:31:16.196Z,5.44
2023-03-08T00:33:42.657Z,5.44
2023-03-08T00:36:19.373Z,5.43
2023-03-08T00:38:47.458Z,5.39
2023-03-08T00:41:14.512Z,5.38
2023-03-08T00:43:42.354Z,5.35
2023-03-08T00:46:09.565Z,5.31
2023-03-08T00:48:36.390Z,5.32
2023-03-08T00:51:03.766Z,5.32
2023-03-08T00:53:30.420Z,5.30
2023-03-08T00:55:59.179Z,5.33
2023-03-08T00:58:28.553Z,5.27
2023-03-08T01:00:55.398Z,5.25
2023-03-08T01:03:23.681Z,5.25
2023-03-08T01:05:52.494Z,5.22
2023-03-08T01:08:20.472Z,5.19
2023-03-08T01:10:51.874Z,5.15
2023-03-08T01:13:19.578Z,5.13
2023-03-08T01:15:47.189Z,5.12
2023-03-08T01:18:14.084Z,5.07
2023-03-08T01:20:40.822Z,5.08
2023-03-08T01:23:07.444Z,4.97
2023-03-08T01:25:33.992Z,4.96
2023-03-08T01:28:00.595Z,4.92
2023-03-08T01:30:27.564Z,4.92
2023-03-08T01:32:54.309Z,4.95
2023-03-08T01:35:20.874Z,4.92
2023-03-08T01:37:53.411Z,4.94
2023-03-08T01:40:21.426Z,4.90
2023-03-08T01:42:48.592Z,4.91
2023-03-08T01:45:53.421Z,4.89
2023-03-08T01:48:27.517Z,4.89
2023-03-08T01:51:02.880Z,4.86
2023-03-08T01:53:30.181Z,4.81
2023-03-08T01:55:57.020Z,4.86
2023-03-08T01:58:25.141Z,4.82
2023-03-08T02:00:51.872Z,4.78
2023-03-08T02:03:18.451Z,4.82
2023-03-08T02:05:45.313Z,4.83
2023-03-08T02:08:15.368Z,4.82
2023-03-08T02:10:43.917Z,4.80
2023-03-08T02:13:11.622Z,4.76
2023-03-08T02:15:42.164Z,4.79
2023-03-08T02:18:09.256Z,4.75
2023-03-08T02:20:39.208Z,4.76
2023-03-08T02:23:08.321Z,4.79
2023-03-08T02:25:34.998Z,4.76
2023-03-08T02:28:01.740Z,4.75
2023-03-08T02:30:36.614Z,4.72
2023-03-08T02:33:23.481Z,4.73
2023-03-08T02:40:11.804Z,4.72
2023-03-08T02:42:58.360Z,4.69
2023-03-08T02:45:45.305Z,4.66
2023-03-08T02:48:25.966Z,4.66
2023-03-08T02:50:52.363Z,4.65
2023-03-08T02:53:18.927Z,4.65
2023-03-08T02:55:45.355Z,4.63
2023-03-08T02:58:12.954Z,4.61
2023-03-08T03:00:40.634Z,4.59
2023-03-08T03:03:07.146Z,4.57
2023-03-08T03:05:33.754Z,4.60
2023-03-08T03:08:04.082Z,4.60
2023-03-08T03:10:30.947Z,4.53
2023-03-08T03:12:57.481Z,4.53
2023-03-08T03:15:28.187Z,4.52
2023-03-08T03:17:57.890Z,4.52
2023-03-08T03:20:25.132Z,4.47
2023-03-08T03:22:51.779Z,4.50
2023-03-08T03:25:22.284Z,4.40
2023-03-08T03:27:49.593Z,4.41
2023-03-08T03:30:17.456Z,4.43
2023-03-08T03:32:45.144Z,4.42
2023-03-08T03:35:13.204Z,4.42
2023-03-08T03:37:40.182Z,4.38
2023-03-08T03:40:07.571Z,4.41
2023-03-08T03:42:34.309Z,4.35
2023-03-08T03:45:09.310Z,4.34
2023-03-08T03:47:36.500Z,4.29
2023-03-08T03:50:05.818Z,4.33
2023-03-08T03:52:42.888Z,4.22
2023-03-08T03:55:09.818Z,4.18
2023-03-08T03:57:36.325Z,4.26
2023-03-08T04:00:04.992Z,4.22
2023-03-08T04:02:40.679Z,4.19
2023-03-08T04:05:10.381Z,4.22
2023-03-08T04:07:37.786Z,4.26
2023-03-08T04:10:06.056Z,4.18
2023-03-08T04:12:32.585Z,4.18
2023-03-08T04:14:58.995Z,4.24
2023-03-08T04:17:29.417Z,4.28
2023-03-08T04:19:56.157Z,4.18
2023-03-08T04:22:22.624Z,4.17
2023-03-08T04:24:55.737Z,4.21
2023-03-08T04:27:34.107Z,4.21
2023-03-08T04:30:00.748Z,4.27
2023-03-08T04:32:34.510Z,4.14
2023-03-08T04:35:01.560Z,4.18
2023-03-08T04:37:30.727Z,4.20
2023-03-08T04:40:07.257Z,4.21
2023-03-08T04:42:36.797Z,4.23
2023-03-08T04:45:03.695Z,4.20
2023-03-08T04:47:30.299Z,4.15
2023-03-08T04:49:56.937Z,4.18
2023-03-08T04:52:24.232Z,4.18
2023-03-08T04:54:52.123Z,4.13
2023-03-08T04:57:24.467Z,4.20
2023-03-08T04:59:54.124Z,4.18
2023-03-08T05:02:23.167Z,4.14
2023-03-08T05:04:56.611Z,4.10
2023-03-08T05:07:23.827Z,4.08
2023-03-08T05:09:52.839Z,4.14
2023-03-08T05:12:25.674Z,4.13
2023-03-08T05:14:58.867Z,4.11
2023-03-08T05:17:26.676Z,4.11
2023-03-08T05:19:53.251Z,4.07
2023-03-08T05:22:25.298Z,4.07
2023-03-08T05:24:55.184Z,4.11
2023-03-08T05:27:21.917Z,4.10
2023-03-08T05:29:51.635Z,4.06
2023-03-08T05:32:18.285Z,4.12
2023-03-08T05:34:45.222Z,4.06
2023-03-08T05:37:18.246Z,4.11
2023-03-08T05:39:45.605Z,4.06
2023-03-08T05:42:17.046Z,4.08
2023-03-08T05:44:46.242Z,4.08
2023-03-08T05:47:15.813Z,4.03
2023-03-08T05:49:42.526Z,4.01
2023-03-08T05:52:10.550Z,4.08
2023-03-08T05:54:39.652Z,4.06
2023-03-08T05:57:10.396Z,4.09
2023-03-08T05:59:37.666Z,4.12
2023-03-08T06:02:05.329Z,4.18
2023-03-08T06:04:36.832Z,4.12
2023-03-08T06:07:03.478Z,4.13
2023-03-08T06:09:35.599Z,4.13
2023-03-08T06:12:03.484Z,4.12
2023-03-08T06:14:30.274Z,4.10
2023-03-08T06:16:57.570Z,4.10
2023-03-08T06:19:26.732Z,4.11
2023-03-08T06:21:55.672Z,4.16
2023-03-08T06:24:22.744Z,4.22
2023-03-08T06:26:49.632Z,4.20
2023-03-08T06:29:16.989Z,4.21
2023-03-08T06:31:43.951Z,4.24
2023-03-08T06:34:12.758Z,4.23
2023-03-08T06:36:39.801Z,4.26
2023-03-08T06:39:07.121Z,4.28
2023-03-08T06:41:33.694Z,4.23
2023-03-08T06:44:02.233Z,4.23
2023-03-08T06:46:28.901Z,4.29
2023-03-08T06:48:56.089Z,4.28
2023-03-08T06:51:23.177Z,4.27
2023-03-08T06:53:50.124Z,4.27
2023-03-08T06:56:20.046Z,4.28
2023-03-08T06:58:46.749Z,4.27
2023-03-08T07:01:13.799Z,4.33
2023-03-08T07:03:40.723Z,4.32
2023-03-08T07:06:09.994Z,4.34
2023-03-08T07:08:37.764Z,4.32
2023-03-08T07:11:04.546Z,4.34
2023-03-08T07:13:30.971Z,4.34
2023-03-08T07:15:57.777Z,4.34
2023-03-08T07:18:24.516Z,4.36
2023-03-08T07:20:57.580Z,4.43
2023-03-08T07:23:24.643Z,4.39
2023-03-08T07:25:51.250Z,4.37
2023-03-08T07:28:18.893Z,4.44
2023-03-08T07:30:49.973Z,4.35
2023-03-08T07:33:18.759Z,4.33
2023-03-08T07:35:45.228Z,4.21
2023-03-08T07:38:12.454Z,4.17
2023-03-08T07:40:39.476Z,4.14
2023-03-08T07:43:06.479Z,3.96
2023-03-08T07:45:51.711Z,3.81
2023-03-08T07:48:18.225Z,3.83
2023-03-08T07:50:44.742Z,3.83
2023-03-08T07:53:11.166Z,3.68
2023-03-08T07:55:38.581Z,3.53
2023-03-08T07:58:05.499Z,3.65
2023-03-08T08:00:32.134Z,3.43
2023-03-08T08:02:58.677Z,3.30
2023-03-08T08:05:25.530Z,3.22
2023-03-08T08:07:52.799Z,3.17
2023-03-08T08:10:19.378Z,3.20
2023-03-08T08:12:45.993Z,3.20
2023-03-08T08:15:12.844Z,3.29
2023-03-08T08:17:39.449Z,3.28
2023-03-08T08:20:08.114Z,3.13
2023-03-08T08:22:38.086Z,3.18
2023-03-08T08:25:08.603Z,3.25
2023-03-08T08:27:36.401Z,3.25
2023-03-08T08:30:05.410Z,3.28
2023-03-08T08:32:34.894Z,3.19
2023-03-08T08:35:01.342Z,3.31
2023-03-08T08:37:29.109Z,3.32
2023-03-08T08:39:55.563Z,3.33
2023-03-08T08:42:22.193Z,3.37
2023-03-08T08:44:48.888Z,3.32
2023-03-08T08:47:15.484Z,3.38
2023-03-08T08:49:42.337Z,3.24
2023-03-08T08:52:08.756Z,3.06
2023-03-08T08:54:35.505Z,3.27
2023-03-08T08:57:01.996Z,3.20
2023-03-08T08:59:28.824Z,3.25
2023-03-08T09:01:55.264Z,3.31
2023-03-08T09:04:21.974Z,3.27
2023-03-08T09:06:48.811Z,3.12
2023-03-08T09:09:16.557Z,3.18
2023-03-08T09:11:54.305Z,3.23
2023-03-08T09:14:22.086Z,3.15
2023-03-08T09:16:48.641Z,3.25
2023-03-08T09:19:15.698Z,3.09
2023-03-08T09:21:42.448Z,3.17
2023-03-08T09:24:10.924Z,3.23
2023-03-08T09:26:37.737Z,3.26
2023-03-08T09:29:07.985Z,3.20
2023-03-08T09:31:36.691Z,3.30
2023-03-08T09:34:09.428Z,3.37
2023-03-08T09:36:39.332Z,3.34
2023-03-08T09:39:08.856Z,3.33
2023-03-08T09:41:58.770Z,3.41
2023-03-08T09:45:03.138Z,3.49
2023-03-08T09:47:41.558Z,3.55
2023-03-08T09:50:25.129Z,3.67
2023-03-08T09:52:59.959Z,3.68
2023-03-08T09:55:32.918Z,3.71
2023-03-08T09:58:11.761Z,3.86
2023-03-08T10:00:38.531Z,3.88
2023-03-08T10:03:29.933Z,3.90
2023-03-08T10:06:15.477Z,3.94
2023-03-08T10:08:53.714Z,4.00
2023-03-08T10:11:54.279Z,4.07
2023-03-08T10:14:35.842Z,4.16
2023-03-08T10:17:10.163Z,4.21
2023-03-08T10:19:58.644Z,4.21
2023-03-08T10:22:31.603Z,4.26
2023-03-08T10:25:18.363Z,4.31
2023-03-08T10:27:47.754Z,4.31
2023-03-08T10:30:17.030Z,4.31
2023-03-08T10:32:45.960Z,4.33
2023-03-08T10:35:12.653Z,4.36
2023-03-08T10:37:39.215Z,4.37
2023-03-08T10:40:09.847Z,4.36
2023-03-08T10:42:36.587Z,4.48
2023-03-08T10:45:12.524Z,4.44
2023-03-08T10:47:39.207Z,4.51
2023-03-08T10:50:14.369Z,4.48
2023-03-08T10:52:41.503Z,4.51
2023-03-08T10:55:17.033Z,4.52
2023-03-08T10:57:54.212Z,4.53
2023-03-08T11:00:20.954Z,4.59
2023-03-08T11:02:48.555Z,4.63
2023-03-08T11:05:26.339Z,4.71
2023-03-08T11:07:55.942Z,4.63
2023-03-08T11:10:24.742Z,4.70
2023-03-08T11:13:02.724Z,4.70
2023-03-08T11:15:32.696Z,4.76
2023-03-08T11:18:17.844Z,4.76
2023-03-08T11:20:58.297Z,4.81
2023-03-08T11:23:35.476Z,4.81
2023-03-08T11:26:21.470Z,4.83
2023-03-08T11:29:07.034Z,4.82
2023-03-08T11:31:33.448Z,4.81
2023-03-08T11:34:27.840Z,4.85
2023-03-08T11:37:10.115Z,4.83
2023-03-08T11:40:13.924Z,4.88
2023-03-08T11:42:44.946Z,4.95
2023-03-08T11:45:23.770Z,5.01
2023-03-08T11:48:12.778Z,5.01
2023-03-08T11:51:01.091Z,5.03
2023-03-08T11:53:59.179Z,5.07
2023-03-08T11:56:42.688Z,5.07
2023-03-08T11:59:21.308Z,5.08
2023-03-08T12:01:50.121Z,5.11
2023-03-08T12:04:22.149Z,5.13
2023-03-08T12:06:49.194Z,5.23
2023-03-08T12:09:28.714Z,5.29
2023-03-08T12:12:06.293Z,5.33
2023-03-08T12:14:35.174Z,5.33
2023-03-08T12:17:08.043Z,5.38
2023-03-08T12:19:42.478Z,5.47
2023-03-08T12:22:43.997Z,5.58
2023-03-08T12:25:27.961Z,5.56
2023-03-08T12:28:17.559Z,5.65
2023-03-08T12:30:51.915Z,5.72
2023-03-08T12:33:19.007Z,5.75
2023-03-08T12:35:55.234Z,5.80
2023-03-08T12:38:22.071Z,5.82
2023-03-08T12:40:51.564Z,5.92
2023-03-08T12:43:21.448Z,5.98
2023-03-08T12:46:01.826Z,6.06
2023-03-08T12:48:32.167Z,6.02
2023-03-08T12:51:22.000Z,6.15
2023-03-08T12:53:48.937Z,6.27
2023-03-08T12:56:24.495Z,6.33
2023-03-08T12:58:57.547Z,6.42
2023-03-08T13:01:40.167Z,6.51
2023-03-08T13:04:39.030Z,6.59
2023-03-08T13:07:06.150Z,6.63
2023-03-08T13:09:41.993Z,6.69
2023-03-08T13:12:08.481Z,6.73
2023-03-08T13:14:44.598Z,6.79
2023-03-08T13:17:39.318Z,6.87
2023-03-08T13:20:09.697Z,6.95
2023-03-08T13:22:55.301Z,7.00
2023-03-08T13:25:39.871Z,7.03
2023-03-08T13:28:15.648Z,7.06
2023-03-08T13:30:54.523Z,7.17
2023-03-08T13:33:30.649Z,7.15
2023-03-08T13:36:05.863Z,7.14
2023-03-08T13:38:37.924Z,7.23
2023-03-08T13:41:04.578Z,7.34
2023-03-08T13:43:33.664Z,7.36
2023-03-08T13:46:11.078Z,7.45
2023-03-08T13:48:37.949Z,7.51
2023-03-08T13:51:04.738Z,7.45
2023-03-08T13:53:37.407Z,7.43
2023-03-08T13:56:06.118Z,7.40
2023-03-08T13:58:41.229Z,7.37
2023-03-08T14:01:19.951Z,7.34
2023-03-08T14:03:47.291Z,7.33
2023-03-08T14:06:22.649Z,7.40
2023-03-08T14:08:50.284Z,7.48
2023-03-08T14:11:22.881Z,7.56
2023-03-08T14:13:54.950Z,7.58
2023-03-08T14:16:33.806Z,7.68
2023-03-08T14:19:28.860Z,7.86
2023-03-08T14:22:01.931Z,7.91
2023-03-08T14:24:31.662Z,7.98
2023-03-08T14:27:06.548Z,8.06
2023-03-08T14:29:34.630Z,8.03
2023-03-08T14:32:10.608Z,8.14
2023-03-08T14:34:45.318Z,8.18
2023-03-08T14:37:11.856Z,8.19
2023-03-08T14:39:47.143Z,8.22
2023-03-08T14:42:42.839Z,8.23
2023-03-08T14:45:40.636Z,8.22
2023-03-08T14:48:33.549Z,8.23
2023-03-08T14:51:06.114Z,8.28
2023-03-08T14:53:35.408Z,8.28
2023-03-08T14:56:12.479Z,8.31
2023-03-08T14:58:41.703Z,8.32
2023-03-08T15:01:08.214Z,8.41
2023-03-08T15:03:35.072Z,8.45
2023-03-08T15:06:10.758Z,8.50
2023-03-08T15:08:37.534Z,8.56
2023-03-08T15:11:04.131Z,8.59
2023-03-08T15:13:30.604Z,8.60
2023-03-08T15:15:57.051Z,8.63
2023-03-08T15:18:23.489Z,8.70
2023-03-08T15:20:51.591Z,8.75
2023-03-08T15:23:23.132Z,8.70
2023-03-08T15:25:50.379Z,8.88
2023-03-08T15:28:19.570Z,8.86
2023-03-08T15:30:46.844Z,8.90
2023-03-08T15:33:13.407Z,8.96
2023-03-08T15:35:40.661Z,8.95
2023-03-08T15:38:07.546Z,8.94
2023-03-08T15:40:34.848Z,9.01
2023-03-08T15:43:01.572Z,9.08
2023-03-08T15:45:28.730Z,9.10
2023-03-08T15:48:00.701Z,9.01
2023-03-08T15:50:28.610Z,9.11
2023-03-08T15:52:56.052Z,9.19
2023-03-08T15:55:25.626Z,9.26
2023-03-08T15:57:52.397Z,9.24
2023-03-08T16:00:20.892Z,9.20
2023-03-08T16:02:47.794Z,9.21
2023-03-08T16:05:15.760Z,9.21
2023-03-08T16:07:43.011Z,9.28
2023-03-08T16:10:13.463Z,9.40
2023-03-08T16:12:41.248Z,9.36
2023-03-08T16:15:08.422Z,9.30
2023-03-08T16:17:35.116Z,9.28
2023-03-08T16:20:03.458Z,9.27
2023-03-08T16:22:29.991Z,9.25
2023-03-08T16:24:56.582Z,9.18
2023-03-08T16:27:23.032Z,9.21
2023-03-08T16:29:51.951Z,9.21
2023-03-08T16:32:19.659Z,9.20
2023-03-08T16:34:51.145Z,9.23
2023-03-08T16:37:21.464Z,9.24
2023-03-08T16:39:52.043Z,9.25
2023-03-08T16:42:19.031Z,9.19
2023-03-08T16:44:50.283Z,9.18
2023-03-08T16:47:17.194Z,9.14
2023-03-08T16:49:43.730Z,9.11
2023-03-08T16:52:10.494Z,9.10
2023-03-08T16:54:36.998Z,9.04
2023-03-08T16:57:18.308Z,9.07
2023-03-08T16:59:45.675Z,9.07
2023-03-08T17:02:18.192Z,9.07
2023-03-08T17:04:45.710Z,9.03
2023-03-08T17:07:12.729Z,9.04
2023-03-08T17:09:39.558Z,8.96
2023-03-08T17:12:07.127Z,9.01
2023-03-08T17:14:34.931Z,8.99
2023-03-08T17:17:01.730Z,8.97
2023-03-08T17:19:28.365Z,8.91
2023-03-08T17:21:55.634Z,8.91
2023-03-08T17:24:22.593Z,8.92
2023-03-08T17:26:51.034Z,8.88
2023-03-08T17:29:17.657Z,8.83
2023-03-08T17:31:44.293Z,8.83
2023-03-08T17:34:11.021Z,8.78
2023-03-08T17:36:38.064Z,8.73
2023-03-08T17:39:04.836Z,8.71
2023-03-08T17:41:32.429Z,8.63
2023-03-08T17:43:59.229Z,8.64
2023-03-08T17:46:29.595Z,8.64
2023-03-08T17:48:56.440Z,8.63
2023-03-08T17:51:25.679Z,8.57
2023-03-08T17:53:52.939Z,8.63
2023-03-08T17:56:22.274Z,8.57
2023-03-08T17:58:49.664Z,8.64
2023-03-08T18:01:28.218Z,8.57
2023-03-08T18:03:55.292Z,8.53
2023-03-08T18:06:34.932Z,8.49
2023-03-08T18:09:06.430Z,8.45
2023-03-08T18:11:37.715Z,8.45
2023-03-08T18:14:06.526Z,8.46
2023-03-08T18:16:33.922Z,8.50
2023-03-08T18:19:02.351Z,8.48
2023-03-08T18:21:31.253Z,8.47
2023-03-08T18:23:58.247Z,8.53
2023-03-08T18:26:25.659Z,8.51
2023-03-08T18:28:52.635Z,8.53
2023-03-08T18:31:23.315Z,8.58
2023-03-08T18:33:50.885Z,8.59
2023-03-08T18:36:18.349Z,8.54
2023-03-08T18:38:44.926Z,8.57
2023-03-08T18:41:12.728Z,8.55
2023-03-08T18:43:40.832Z,8.54
2023-03-08T18:46:10.260Z,8.48
2023-03-08T18:48:36.943Z,8.48
2023-03-08T18:51:03.550Z,8.54
2023-03-08T18:53:30.041Z,8.56
2023-03-08T18:55:59.075Z,8.54
2023-03-08T18:58:26.146Z,8.51
2023-03-08T19:00:54.567Z,8.51
2023-03-08T19:03:21.165Z,8.53
2023-03-08T19:05:47.610Z,8.54
2023-03-08T19:08:14.359Z,8.56
2023-03-08T19:10:40.826Z,8.59
2023-03-08T19:13:07.243Z,8.57
2023-03-08T19:15:38.321Z,8.59
2023-03-08T19:18:06.003Z,8.62
2023-03-08T19:20:40.351Z,8.60
2023-03-08T19:23:08.477Z,8.57
2023-03-08T19:25:59.390Z,8.62
2023-03-08T19:28:26.700Z,8.58
2023-03-08T19:30:53.153Z,8.61
2023-03-08T19:33:30.380Z,8.56
2023-03-08T19:35:58.424Z,8.58
2023-03-08T19:38:24.973Z,8.58
2023-03-08T19:40:51.484Z,8.55
2023-03-08T19:43:18.045Z,8.54
2023-03-08T19:45:49.112Z,8.59
2023-03-08T19:48:15.597Z,8.61
2023-03-08T19:50:46.179Z,8.61
2023-03-08T19:53:12.802Z,8.66
2023-03-08T19:55:51.199Z,8.66
2023-03-08T19:58:18.303Z,8.69
2023-03-08T20:00:45.049Z,8.69
2023-03-08T20:03:12.901Z,8.67
2023-03-08T20:05:41.859Z,8.65
2023-03-08T20:08:08.763Z,8.64
2023-03-08T20:10:35.284Z,8.62
2023-03-08T20:13:01.985Z,8.64
2023-03-08T20:15:28.946Z,8.65
2023-03-08T20:17:55.555Z,8.69
2023-03-08T20:20:22.384Z,8.63
2023-03-08T20:22:49.027Z,8.63
2023-03-08T20:25:15.698Z,8.66
2023-03-08T20:27:43.460Z,8.62
2023-03-08T20:30:11.876Z,8.60
2023-03-08T20:32:38.823Z,8.63
2023-03-08T20:35:06.218Z,8.67
2023-03-08T20:37:32.836Z,8.63
2023-03-08T20:39:59.438Z,8.63
2023-03-08T20:42:26.205Z,8.66
2023-03-08T20:44:52.764Z,8.64
2023-03-08T20:47:19.613Z,8.59
2023-03-08T20:49:46.168Z,8.63
2023-03-08T20:52:12.980Z,8.64
2023-03-08T20:54:39.413Z,8.63
2023-03-08T20:57:05.886Z,8.66
2023-03-08T20:59:32.455Z,8.63
2023-03-08T21:01:59.042Z,8.62
2023-03-08T21:04:25.492Z,8.64
2023-03-08T21:06:53.044Z,8.66
2023-03-08T21:09:19.558Z,8.66
2023-03-08T21:11:47.142Z,8.71
2023-03-08T21:14:13.891Z,8.68
2023-03-08T21:16:40.538Z,8.66
2023-03-08T21:19:07.138Z,8.64
2023-03-08T21:21:39.098Z,8.64
2023-03-08T21:24:10.124Z,8.64
2023-03-08T21:26:37.604Z,8.73
2023-03-08T21:29:06.978Z,8.67
2023-03-08T21:31:36.259Z,8.68
2023-03-08T21:34:04.693Z,8.68
2023-03-08T21:36:31.972Z,8.71
2023-03-08T21:38:59.462Z,8.73
2023-03-08T21:41:28.936Z,8.81
2023-03-08T21:43:56.028Z,8.84
2023-03-08T21:46:23.392Z,8.82
2023-03-08T21:48:50.246Z,8.84
2023-03-08T21:51:16.806Z,8.90
2023-03-08T21:53:44.386Z,9.02
2023-03-08T21:56:14.331Z,9.07
2023-03-08T21:58:40.938Z,9.15
2023-03-08T22:01:19.953Z,9.19
2023-03-08T22:03:46.560Z,9.17
2023-03-08T22:06:13.120Z,9.18
2023-03-08T22:08:39.627Z,9.23
2023-03-08T22:11:06.231Z,9.22
2023-03-08T22:13:32.798Z,9.22
2023-03-08T22:15:59.397Z,9.23
2023-03-08T22:18:26.003Z,9.20
2023-03-08T22:20:56.034Z,9.21
2023-03-08T22:23:22.527Z,9.25
2023-03-08T22:25:49.269Z,9.29
2023-03-08T22:28:15.783Z,9.35
2023-03-08T22:30:42.443Z,9.38
2023-03-08T22:33:09.769Z,9.34
2023-03-08T22:35:36.404Z,9.38
2023-03-08T22:38:02.828Z,9.38
2023-03-08T22:40:30.851Z,9.37
2023-03-08T22:42:57.415Z,9.42
2023-03-08T22:45:23.982Z,9.51
2023-03-08T22:47:51.898Z,9.53
2023-03-08T22:50:18.689Z,9.53
2023-03-08T22:52:45.291Z,9.56
2023-03-08T22:55:11.968Z,9.61
2023-03-08T22:57:38.886Z,9.62
2023-03-08T23:00:14.068Z,9.63
2023-03-08T23:02:42.090Z,9.61
2023-03-08T23:05:12.413Z,9.58
2023-03-08T23:07:39.039Z,9.63
2023-03-08T23:10:06.498Z,9.63
2023-03-08T23:12:33.015Z,9.60
2023-03-08T23:15:00.101Z,9.69
2023-03-08T23:17:27.374Z,9.67
2023-03-08T23:19:53.846Z,9.70
2023-03-08T23:22:20.598Z,9.70
2023-03-08T23:24:47.286Z,9.69
2023-03-08T23:27:13.935Z,9.70
2023-03-08T23:29:40.691Z,9.71
2023-03-08T23:32:07.620Z,9.68
2023-03-08T23:34:34.738Z,9.70
2023-03-08T23:37:03.934Z,9.72
2023-03-08T23:39:34.129Z,9.74
2023-03-08T23:42:00.813Z,9.69
2023-03-08T23:44:27.772Z,9.70
2023-03-08T23:46:54.307Z,9.68
2023-03-08T23:49:21.232Z,9.69
2023-03-08T23:51:47.682Z,9.74
2023-03-08T23:54:14.401Z,9.72
2023-03-08T23:56:41.440Z,9.70
2023-03-08T23:59:20.641Z,9.68
